createdAt,value
2023-06-24T00:00:22.665Z,98853.37
2023-06-24T00:03:38.286Z,98852.51
2023-06-24T00:06:30.453Z,98853.15
2023-06-24T00:09:22.505Z,98852.15
2023-06-24T00:12:11.682Z,98852.13
2023-06-24T00:15:03.828Z,98847.92
2023-06-24T00:18:03.190Z,98847.73
2023-06-24T00:20:55.430Z,98843.67
2023-06-24T00:23:50.344Z,98841.83
2023-06-24T00:26:42.313Z,98843.21
2023-06-24T00:29:34.358Z,98844.49
2023-06-24T00:32:26.523Z,98844.34
2023-06-24T00:35:19.906Z,98840.23
2023-06-24T00:38:12.014Z,98839.48
2023-06-24T00:40:53.002Z,98838.69
2023-06-24T00:43:45.148Z,98834.55
2023-06-24T00:46:38.595Z,98827.36
2023-06-24T00:49:30.659Z,98824.02
2023-06-24T00:52:22.633Z,98815.41
2023-06-24T00:55:16.657Z,98814.08
2023-06-24T00:58:09.306Z,98821.11
2023-06-24T01:01:02.498Z,98828.00
2023-06-24T01:03:54.785Z,98830.79
2023-06-24T01:06:46.989Z,98835.23
2023-06-24T01:09:39.218Z,98835.80
2023-06-24T01:12:31.261Z,98833.45
2023-06-24T01:15:24.051Z,98839.23
2023-06-24T01:18:23.862Z,98844.04
2023-06-24T01:21:30.827Z,98847.95
2023-06-24T01:24:43.617Z,98845.11
2023-06-24T01:27:56.075Z,98848.79
2023-06-24T01:31:08.001Z,98852.31
2023-06-24T01:34:07.579Z,98854.21
2023-06-24T01:37:07.244Z,98854.83
2023-06-24T01:40:09.356Z,98857.88
2023-06-24T01:43:03.650Z,98862.66
2023-06-24T01:45:57.660Z,98863.98
2023-06-24T01:48:52.842Z,98863.98
2023-06-24T01:51:47.658Z,98865.46
2023-06-24T01:54:42.127Z,98860.90
2023-06-24T01:57:38.442Z,98857.31
2023-06-24T02:00:31.261Z,98859.77
2023-06-24T02:03:26.139Z,98861.63
2023-06-24T02:06:19.470Z,98861.98
2023-06-24T02:09:13.391Z,98855.65
2023-06-24T02:12:08.190Z,98852.35
2023-06-24T02:15:01.501Z,98852.23
2023-06-24T02:17:57.690Z,98851.46
2023-06-24T02:20:52.637Z,98848.66
2023-06-24T02:23:45.452Z,98851.45
2023-06-24T02:26:41.719Z,98851.36
2023-06-24T02:29:20.039Z,98854.05
2023-06-24T02:32:12.733Z,98856.67
2023-06-24T02:35:05.189Z,98860.62
2023-06-24T02:37:57.273Z,98861.79
2023-06-24T02:40:49.565Z,98863.09
2023-06-24T02:43:41.602Z,98867.24
2023-06-24T02:46:35.369Z,98870.04
2023-06-24T02:49:29.461Z,98868.39
2023-06-24T02:52:21.603Z,98867.63
2023-06-24T02:55:13.916Z,98869.34
2023-06-24T02:58:09.045Z,98871.71
2023-06-24T03:01:02.403Z,98873.64
2023-06-24T03:03:56.594Z,98867.69
2023-06-24T03:06:50.687Z,98870.32
2023-06-24T03:09:25.216Z,98868.80
2023-06-24T03:12:17.278Z,98873.88
2023-06-24T03:15:10.556Z,98874.20
2023-06-24T03:18:02.610Z,98873.63
2023-06-24T03:20:54.619Z,98872.27
2023-06-24T03:23:46.713Z,98871.30
2023-06-24T03:26:40.615Z,98874.21
2023-06-24T03:29:32.691Z,98879.96
2023-06-24T03:32:24.753Z,98883.52
2023-06-24T03:35:13.023Z,98886.98
2023-06-24T03:38:05.068Z,98887.42
2023-06-24T03:40:57.100Z,98885.23
2023-06-24T03:43:50.651Z,98893.50
2023-06-24T03:46:42.639Z,98896.27
2023-06-24T03:49:34.698Z,98897.67
2023-06-24T03:52:26.696Z,98896.11
2023-06-24T03:55:18.942Z,98902.00
2023-06-24T03:58:10.968Z,98904.55
2023-06-24T04:01:04.680Z,98905.72
2023-06-24T04:03:56.915Z,98909.08
2023-06-24T04:06:28.841Z,98913.48
2023-06-24T04:09:20.887Z,98914.08
2023-06-24T04:12:13.632Z,98925.92
2023-06-24T04:15:06.320Z,98925.38
2023-06-24T04:17:58.398Z,98928.58
2023-06-24T04:20:50.798Z,98927.73
2023-06-24T04:23:42.870Z,98936.67
2023-06-24T04:26:35.207Z,98933.96
2023-06-24T04:29:27.266Z,98931.27
2023-06-24T04:32:19.358Z,98931.86
2023-06-24T04:35:11.739Z,98935.05
2023-06-24T04:38:03.847Z,98939.10
2023-06-24T04:40:44.947Z,98940.06
2023-06-24T04:43:37.622Z,98941.84
2023-06-24T04:46:19.674Z,98949.11
2023-06-24T04:49:11.703Z,98947.91
2023-06-24T04:52:05.300Z,98954.02
2023-06-24T04:54:57.536Z,98956.90
2023-06-24T04:57:49.521Z,98961.29
2023-06-24T05:00:41.583Z,98970.50
2023-06-24T05:03:33.687Z,98970.33
2023-06-24T05:06:25.812Z,98971.27
2023-06-24T05:09:18.606Z,98970.90
2023-06-24T05:12:11.939Z,98973.02
2023-06-24T05:15:04.019Z,98976.58
2023-06-24T05:17:56.162Z,98981.40
2023-06-24T05:20:48.203Z,98980.31
2023-06-24T05:23:40.283Z,98980.98
2023-06-24T05:26:32.311Z,98983.11
2023-06-24T05:29:24.536Z,98991.63
2023-06-24T05:32:18.363Z,98997.14
2023-06-24T05:35:11.160Z,99003.80
2023-06-24T05:38:03.537Z,99010.98
2023-06-24T05:40:44.416Z,99008.73
2023-06-24T05:43:36.462Z,99012.03
2023-06-24T05:46:28.579Z,99012.45
2023-06-24T05:49:20.633Z,99012.04
2023-06-24T05:52:13.360Z,99014.23
2023-06-24T05:55:06.055Z,99018.68
2023-06-24T05:57:58.041Z,99022.42
2023-06-24T06:00:50.164Z,99026.38
2023-06-24T06:03:42.310Z,99025.55
2023-06-24T06:06:34.470Z,99026.02
2023-06-24T06:09:26.733Z,99021.19
2023-06-24T06:12:18.934Z,99023.17
2023-06-24T06:15:12.817Z,99029.40
2023-06-24T06:18:05.086Z,99032.56
2023-06-24T06:20:57.203Z,99038.02
2023-06-24T06:23:49.201Z,99040.80
2023-06-24T06:26:46.089Z,99044.80
2023-06-24T06:29:38.105Z,99042.36
2023-06-24T06:32:32.394Z,99045.42
2023-06-24T06:35:24.850Z,99050.98
2023-06-24T06:38:16.937Z,99052.11
2023-06-24T06:41:08.916Z,99056.98
2023-06-24T06:44:01.015Z,99053.77
2023-06-24T06:46:53.077Z,99061.27
2023-06-24T06:49:45.079Z,99064.52
2023-06-24T06:52:37.261Z,99066.50
2023-06-24T06:55:29.653Z,99070.32
2023-06-24T06:58:21.708Z,99066.88
2023-06-24T07:01:13.894Z,99067.67
2023-06-24T07:04:06.129Z,99074.98
2023-06-24T07:06:58.180Z,99074.05
2023-06-24T07:09:50.324Z,99073.63
2023-06-24T07:12:42.440Z,99077.80
2023-06-24T07:15:34.858Z,99083.60
2023-06-24T07:18:31.363Z,99090.06
2023-06-24T07:21:23.471Z,99097.42
2023-06-24T07:24:15.560Z,99104.98
2023-06-24T07:27:08.445Z,99107.44
2023-06-24T07:30:00.517Z,99110.36
2023-06-24T07:32:52.612Z,99108.86
2023-06-24T07:35:44.724Z,99111.57
2023-06-24T07:38:36.714Z,99113.15
2023-06-24T07:41:28.773Z,99111.80
2023-06-24T07:44:21.239Z,99112.89
2023-06-24T07:47:13.334Z,99109.86
2023-06-24T07:50:07.262Z,99114.34
2023-06-24T07:52:59.360Z,99116.56
2023-06-24T07:55:41.454Z,99121.55
2023-06-24T07:58:33.522Z,99121.36
2023-06-24T08:01:25.583Z,99125.35
2023-06-24T08:04:18.392Z,99132.20
2023-06-24T08:07:10.559Z,99130.11
2023-06-24T08:10:02.642Z,99132.14
2023-06-24T08:12:54.697Z,99130.96
2023-06-24T08:15:46.927Z,99130.61
2023-06-24T08:18:39.087Z,99137.78
2023-06-24T08:21:11.077Z,99144.91
2023-06-24T08:24:03.638Z,99147.08
2023-06-24T08:26:55.692Z,99154.15
2023-06-24T08:29:47.745Z,99157.48
2023-06-24T08:32:41.291Z,99158.54
2023-06-24T08:35:33.546Z,99155.09
2023-06-24T08:38:25.789Z,99159.74
2023-06-24T08:41:17.995Z,99161.83
2023-06-24T08:43:52.664Z,99158.79
2023-06-24T08:46:45.338Z,99162.58
2023-06-24T08:49:46.514Z,99165.04
2023-06-24T08:52:40.616Z,99174.79
2023-06-24T08:55:38.779Z,99180.41
2023-06-24T08:58:31.634Z,99182.79
2023-06-24T09:01:24.484Z,99180.34
2023-06-24T09:04:16.638Z,99181.06
2023-06-24T09:07:09.027Z,99186.89
2023-06-24T09:09:57.939Z,99190.63
2023-06-24T09:12:56.447Z,99191.30
2023-06-24T09:15:48.449Z,99192.34
2023-06-24T09:18:40.436Z,99193.60
2023-06-24T09:21:32.727Z,99191.77
2023-06-24T09:24:29.028Z,99196.35
2023-06-24T09:27:22.999Z,99198.44
2023-06-24T09:30:23.108Z,99201.73
2023-06-24T09:33:15.934Z,99201.20
2023-06-24T09:36:14.820Z,99196.67
2023-06-24T09:39:17.583Z,99201.48
2023-06-24T09:42:17.518Z,99205.09
2023-06-24T09:45:10.687Z,99206.76
2023-06-24T09:48:03.302Z,99204.59
2023-06-24T09:50:40.367Z,99202.36
2023-06-24T09:53:34.518Z,99204.38
2023-06-24T09:56:16.115Z,99207.75
2023-06-24T09:59:09.266Z,99209.54
2023-06-24T10:02:02.206Z,99203.96
2023-06-24T10:04:56.146Z,99207.58
2023-06-24T10:07:48.836Z,99211.54
2023-06-24T10:10:41.161Z,99206.37
2023-06-24T10:13:33.337Z,99209.08
2023-06-24T10:16:26.441Z,99215.20
2023-06-24T10:19:24.001Z,99215.75
2023-06-24T10:22:16.474Z,99214.10
2023-06-24T10:25:13.345Z,99218.43
2023-06-24T10:28:05.648Z,99227.30
2023-06-24T10:31:00.905Z,99224.70
2023-06-24T10:33:40.907Z,99226.20
2023-06-24T10:39:51.556Z,99221.26
2023-06-24T10:42:39.925Z,99225.31
2023-06-24T10:45:32.151Z,99232.56
2023-06-24T10:48:24.450Z,99233.92
2023-06-24T10:51:17.485Z,99234.70
2023-06-24T10:54:10.129Z,99234.94
2023-06-24T10:57:02.719Z,99239.40
2023-06-24T10:59:56.839Z,99239.75
2023-06-24T11:02:47.566Z,99238.27
2023-06-24T11:05:42.164Z,99243.21
2023-06-24T11:08:34.150Z,99244.94
2023-06-24T11:11:26.363Z,99250.93
2023-06-24T11:14:19.164Z,99257.77
2023-06-24T11:17:11.284Z,99257.57
2023-06-24T11:19:45.876Z,99253.11
2023-06-24T11:22:38.372Z,99258.36
2023-06-24T11:25:30.348Z,99263.39
2023-06-24T11:28:23.430Z,99263.27
2023-06-24T11:31:16.036Z,99260.55
2023-06-24T11:34:08.325Z,99264.17
2023-06-24T11:37:00.362Z,99264.60
2023-06-24T11:40:06.770Z,99261.52
2023-06-24T11:42:58.833Z,99258.70
2023-06-24T11:45:52.978Z,99262.27
2023-06-24T11:48:43.473Z,99265.41
2023-06-24T11:51:36.034Z,99262.13
2023-06-24T11:54:28.897Z,99262.45
2023-06-24T11:57:22.222Z,99264.77
2023-06-24T12:00:19.984Z,99265.23
2023-06-24T12:03:13.518Z,99268.59
2023-06-24T12:06:05.809Z,99267.56
2023-06-24T12:08:57.880Z,99266.55
2023-06-24T12:11:50.037Z,99268.04
2023-06-24T12:14:42.149Z,99268.19
2023-06-24T12:17:34.246Z,99265.66
2023-06-24T12:20:34.063Z,99267.02
2023-06-24T12:23:28.181Z,99265.95
2023-06-24T12:26:20.271Z,99265.14
2023-06-24T12:29:12.280Z,99262.85
2023-06-24T12:32:04.530Z,99259.09
2023-06-24T12:34:56.785Z,99266.35
2023-06-24T12:37:50.050Z,99269.77
2023-06-24T12:40:42.158Z,99273.50
2023-06-24T12:43:34.464Z,99273.50
2023-06-24T12:46:26.716Z,99274.46
2023-06-24T12:49:18.732Z,99274.98
2023-06-24T12:52:11.039Z,99277.06
2023-06-24T12:55:04.829Z,99279.90
2023-06-24T12:57:57.065Z,99282.25
2023-06-24T13:00:49.184Z,99282.41
2023-06-24T13:03:41.224Z,99282.64
2023-06-24T13:06:33.246Z,99283.45
2023-06-24T13:09:25.309Z,99284.08
2023-06-24T13:12:09.368Z,99286.23
2023-06-24T13:15:01.574Z,99287.20
2023-06-24T13:17:53.650Z,99288.73
2023-06-24T13:20:46.090Z,99287.14
2023-06-24T13:23:39.661Z,99285.45
2023-06-24T13:26:12.236Z,99286.71
2023-06-24T13:29:04.463Z,99287.02
2023-06-24T13:31:56.365Z,99289.10
2023-06-24T13:34:48.472Z,99289.05
2023-06-24T13:37:37.021Z,99286.58
2023-06-24T13:40:12.831Z,99285.41
2023-06-24T13:43:04.858Z,99282.62
2023-06-24T13:45:56.874Z,99278.04
2023-06-24T13:48:48.865Z,99277.11
2023-06-24T13:51:23.642Z,99280.44
2023-06-24T13:54:15.757Z,99281.21
2023-06-24T13:57:08.044Z,99279.14
2023-06-24T14:00:00.138Z,99277.69
2023-06-24T14:02:54.723Z,99275.08
2023-06-24T14:05:47.016Z,99276.19
2023-06-24T14:08:39.522Z,99271.96
2023-06-24T14:11:31.597Z,99276.38
2023-06-24T14:14:23.674Z,99275.23
2023-06-24T14:17:15.818Z,99275.16
2023-06-24T14:20:10.455Z,99276.48
2023-06-24T14:23:02.453Z,99269.34
2023-06-24T14:25:54.473Z,99270.45
2023-06-24T14:28:48.140Z,99268.85
2023-06-24T14:31:40.238Z,99269.26
2023-06-24T14:34:33.336Z,99268.12
2023-06-24T14:37:25.370Z,99272.48
2023-06-24T14:40:17.388Z,99276.08
2023-06-24T14:43:09.465Z,99273.03
2023-06-24T14:46:01.495Z,99274.83
2023-06-24T14:48:53.485Z,99275.63
2023-06-24T14:51:45.559Z,99273.28
2023-06-24T14:54:37.559Z,99268.02
2023-06-24T14:57:29.588Z,99269.41
2023-06-24T15:00:21.950Z,99268.75
2023-06-24T15:03:14.630Z,99266.85
2023-06-24T15:06:06.779Z,99262.73
2023-06-24T15:08:58.813Z,99265.09
2023-06-24T15:11:50.837Z,99263.92
2023-06-24T15:14:44.388Z,99266.38
2023-06-24T15:17:41.488Z,99267.02
2023-06-24T15:20:34.772Z,99268.39
2023-06-24T15:23:27.550Z,99269.85
2023-06-24T15:26:19.619Z,99265.77
2023-06-24T15:29:11.631Z,99271.64
2023-06-24T15:32:03.935Z,99272.66
2023-06-24T15:34:49.750Z,99270.52
2023-06-24T15:37:41.880Z,99272.52
2023-06-24T15:40:33.988Z,99275.27
2023-06-24T15:43:26.310Z,99277.79
2023-06-24T15:46:18.419Z,99277.15
2023-06-24T15:49:10.438Z,99275.66
2023-06-24T15:52:02.417Z,99272.65
2023-06-24T15:54:54.428Z,99276.57
2023-06-24T15:57:46.486Z,99272.11
2023-06-24T16:00:38.635Z,99272.20
2023-06-24T16:03:31.054Z,99270.93
2023-06-24T16:06:24.257Z,99273.04
2023-06-24T16:09:06.572Z,99272.02
2023-06-24T16:11:58.599Z,99278.39
2023-06-24T16:14:50.614Z,99271.55
2023-06-24T16:17:42.735Z,99272.06
2023-06-24T16:20:30.930Z,99274.58
2023-06-24T16:23:22.973Z,99272.97
2023-06-24T16:26:14.947Z,99265.41
2023-06-24T16:29:07.021Z,99268.53
2023-06-24T16:31:59.120Z,99270.53
2023-06-24T16:34:51.458Z,99269.24
2023-06-24T16:37:43.553Z,99262.38
2023-06-24T16:40:15.940Z,99260.73
2023-06-24T16:43:07.967Z,99261.45
2023-06-24T16:46:00.052Z,99260.41
2023-06-24T16:48:52.086Z,99257.29
2023-06-24T16:51:44.157Z,99257.89
2023-06-24T16:54:36.207Z,99260.76
2023-06-24T16:57:28.227Z,99257.08
2023-06-24T17:00:14.045Z,99260.70
2023-06-24T17:03:06.731Z,99259.82
2023-06-24T17:05:58.836Z,99255.19
2023-06-24T17:08:50.846Z,99252.66
2023-06-24T17:11:42.940Z,99251.61
2023-06-24T17:14:35.632Z,99245.54
2023-06-24T17:17:27.638Z,99243.39
2023-06-24T17:20:19.748Z,99246.22
2023-06-24T17:23:11.592Z,99241.84
2023-06-24T17:26:03.890Z,99238.43
2023-06-24T17:28:55.907Z,99234.68
2023-06-24T17:31:47.935Z,99237.00
2023-06-24T17:34:41.434Z,99236.13
2023-06-24T17:37:33.474Z,99231.66
2023-06-24T17:40:25.541Z,99229.79
2023-06-24T17:43:17.588Z,99233.85
2023-06-24T17:46:09.625Z,99238.79
2023-06-24T17:49:02.061Z,99236.66
2023-06-24T17:51:54.094Z,99236.63
2023-06-24T17:54:46.083Z,99236.71
2023-06-24T17:57:38.498Z,99238.42
2023-06-24T18:00:32.053Z,99237.80
2023-06-24T18:03:25.901Z,99233.47
2023-06-24T18:06:18.683Z,99229.89
2023-06-24T18:09:10.866Z,99232.14
2023-06-24T18:12:03.092Z,99231.88
2023-06-24T18:14:55.175Z,99231.82
2023-06-24T18:17:47.512Z,99226.48
2023-06-24T18:20:39.710Z,99219.63
2023-06-24T18:23:31.804Z,99225.98
2023-06-24T18:26:27.109Z,99226.94
2023-06-24T18:29:19.177Z,99225.06
2023-06-24T18:32:11.549Z,99224.52
2023-06-24T18:35:03.629Z,99221.15
2023-06-24T18:37:55.631Z,99221.19
2023-06-24T18:40:32.592Z,99225.45
2023-06-24T18:43:24.644Z,99222.45
2023-06-24T18:46:18.893Z,99220.91
2023-06-24T18:49:11.892Z,99226.34
2023-06-24T18:52:03.956Z,99230.30
2023-06-24T18:54:55.992Z,99232.98
2023-06-24T18:57:48.131Z,99232.33
2023-06-24T19:00:42.209Z,99226.98
2023-06-24T19:03:34.350Z,99227.14
2023-06-24T19:06:26.481Z,99230.73
2023-06-24T19:09:18.470Z,99231.02
2023-06-24T19:12:11.051Z,99235.67
2023-06-24T19:15:03.103Z,99232.57
2023-06-24T19:17:47.524Z,99239.09
2023-06-24T19:20:40.621Z,99245.77
2023-06-24T19:23:33.880Z,99241.05
2023-06-24T19:26:26.055Z,99242.91
2023-06-24T19:29:08.741Z,99240.30
2023-06-24T19:32:00.863Z,99248.42
2023-06-24T19:34:52.919Z,99242.93
2023-06-24T19:37:45.799Z,99240.23
2023-06-24T19:40:38.188Z,99237.82
2023-06-24T19:43:30.433Z,99237.50
2023-06-24T19:46:35.626Z,99237.73
2023-06-24T19:49:31.971Z,99239.11
2023-06-24T19:52:24.634Z,99239.02
2023-06-24T19:55:16.709Z,99239.91
2023-06-24T19:58:08.887Z,99235.08
2023-06-24T20:01:00.870Z,99239.50
2023-06-24T20:03:52.889Z,99234.55
2023-06-24T20:06:44.998Z,99228.65
2023-06-24T20:09:37.197Z,99236.14
2023-06-24T20:12:29.236Z,99234.02
2023-06-24T20:15:21.263Z,99227.27
2023-06-24T20:18:13.545Z,99228.31
2023-06-24T20:21:05.656Z,99232.17
2023-06-24T20:23:57.695Z,99229.92
2023-06-24T20:26:50.991Z,99227.70
2023-06-24T20:29:44.672Z,99224.73
2023-06-24T20:32:37.234Z,99225.66
2023-06-24T20:35:29.311Z,99224.59
2023-06-24T20:38:21.315Z,99229.08
2023-06-24T20:41:24.258Z,99229.08
2023-06-24T20:44:18.018Z,99227.46
2023-06-24T20:47:10.642Z,99227.47
2023-06-24T20:50:02.855Z,99225.39
2023-06-24T20:52:54.829Z,99225.16
2023-06-24T20:55:46.884Z,99222.46
2023-06-24T20:58:39.249Z,99219.98
2023-06-24T21:01:31.306Z,99221.66
2023-06-24T21:04:23.523Z,99228.52
2023-06-24T21:07:15.666Z,99223.77
2023-06-24T21:10:08.816Z,99222.38
2023-06-24T21:13:00.858Z,99222.39
2023-06-24T21:15:52.994Z,99218.23
2023-06-24T21:18:45.034Z,99215.10
2023-06-24T21:21:21.935Z,99219.13
2023-06-24T21:24:13.992Z,99215.33
2023-06-24T21:27:07.067Z,99220.96
2023-06-24T21:29:59.068Z,99224.34
2023-06-24T21:32:51.152Z,99226.33
2023-06-24T21:35:49.900Z,99229.73
2023-06-24T21:38:52.354Z,99226.10
2023-06-24T21:41:46.248Z,99227.05
2023-06-24T21:44:38.322Z,99227.37
2023-06-24T21:47:30.411Z,99228.67
2023-06-24T21:50:22.591Z,99223.29
2023-06-24T21:53:14.568Z,99223.17
2023-06-24T21:56:07.014Z,99223.46
2023-06-24T21:58:59.115Z,99220.09
2023-06-24T22:01:36.010Z,99222.25
2023-06-24T22:04:28.049Z,99220.44
2023-06-24T22:07:20.181Z,99221.12
2023-06-24T22:10:13.754Z,99217.48
2023-06-24T22:13:05.795Z,99219.56
2023-06-24T22:15:58.068Z,99221.32
2023-06-24T22:18:50.050Z,99225.63
2023-06-24T22:21:42.113Z,99222.20
2023-06-24T22:24:35.206Z,99224.45
2023-06-24T22:27:28.431Z,99223.61
2023-06-24T22:30:21.071Z,99226.73
2023-06-24T22:33:13.183Z,99226.63
2023-06-24T22:36:05.512Z,99224.84
2023-06-24T22:38:57.845Z,99228.95
2023-06-24T22:41:50.004Z,99225.33
2023-06-24T22:44:42.148Z,99222.91
2023-06-24T22:47:34.318Z,99220.36
2023-06-24T22:50:26.411Z,99217.00
2023-06-24T22:53:09.289Z,99214.86
2023-06-24T22:56:01.330Z,99216.70
2023-06-24T22:58:53.579Z,99217.39
2023-06-24T23:01:37.311Z,99215.43
2023-06-24T23:04:29.752Z,99215.71
2023-06-24T23:07:24.327Z,99210.83
2023-06-24T23:10:17.777Z,99209.33
2023-06-24T23:13:10.607Z,99205.58
2023-06-24T23:16:03.838Z,99203.28
2023-06-24T23:18:56.659Z,99198.79
2023-06-24T23:21:49.738Z,99193.34
2023-06-24T23:24:46.216Z,99195.26
2023-06-24T23:27:41.343Z,99188.91
2023-06-24T23:30:37.059Z,99186.65
2023-06-24T23:33:29.974Z,99184.10
2023-06-24T23:36:22.710Z,99182.27
2023-06-24T23:39:15.439Z,99178.25
2023-06-24T23:42:09.243Z,99177.70
2023-06-24T23:45:02.018Z,99174.83
2023-06-24T23:47:54.227Z,99171.08
2023-06-24T23:50:38.025Z,99176.20
2023-06-24T23:53:30.237Z,99175.81
2023-06-24T23:56:22.249Z,99169.73
2023-06-24T23:59:14.247Z,99172.05
